sensor_id;sensor_type;location;lat;lon;timestamp;pressure;altitude;pressure_sealevel;temperature;humidity
66090;BME280;53113;45.602;11.904;2022-07-23T00:02:07;101215.77;;;25.76;47.43
66090;BME280;53113;45.602;11.904;2022-07-23T00:04:33;101211.86;;;25.70;47.69
66090;BME280;53113;45.602;11.904;2022-07-23T00:06:59;101210.02;;;25.66;47.85
66090;BME280;53113;45.602;11.904;2022-07-23T00:09:25;101205.30;;;25.62;47.81
66090;BME280;53113;45.602;11.904;2022-07-23T00:11:51;101204.58;;;25.58;47.86
66090;BME280;53113;45.602;11.904;2022-07-23T00:14:17;101196.69;;;25.54;47.95
66090;BME280;53113;45.602;11.904;2022-07-23T00:16:43;101200.87;;;25.51;48.00
66090;BME280;53113;45.602;11.904;2022-07-23T00:19:08;101200.34;;;25.47;48.29
66090;BME280;53113;45.602;11.904;2022-07-23T00:21:34;101202.30;;;25.43;48.35
66090;BME280;53113;45.602;11.904;2022-07-23T00:24:00;101203.74;;;25.38;48.46
66090;BME280;53113;45.602;11.904;2022-07-23T00:26:25;101202.73;;;25.34;48.76
66090;BME280;53113;45.602;11.904;2022-07-23T00:28:54;101202.88;;;25.30;48.85
66090;BME280;53113;45.602;11.904;2022-07-23T00:31:19;101199.47;;;25.26;49.12
66090;BME280;53113;45.602;11.904;2022-07-23T00:33:45;101193.41;;;25.22;49.32
66090;BME280;53113;45.602;11.904;2022-07-23T00:36:11;101192.67;;;25.18;49.10
66090;BME280;53113;45.602;11.904;2022-07-23T00:38:36;101193.77;;;25.14;49.18
66090;BME280;53113;45.602;11.904;2022-07-23T00:41:02;101193.88;;;25.11;49.43
66090;BME280;53113;45.602;11.904;2022-07-23T00:43:28;101189.04;;;25.07;49.44
66090;BME280;53113;45.602;11.904;2022-07-23T00:45:54;101193.39;;;25.04;49.75
66090;BME280;53113;45.602;11.904;2022-07-23T00:48:19;101189.15;;;25.02;49.84
66090;BME280;53113;45.602;11.904;2022-07-23T00:50:45;101185.88;;;24.99;49.64
66090;BME280;53113;45.602;11.904;2022-07-23T00:53:11;101178.46;;;24.96;49.84
66090;BME280;53113;45.602;11.904;2022-07-23T00:55:37;101181.55;;;24.93;49.67
66090;BME280;53113;45.602;11.904;2022-07-23T00:58:04;101177.21;;;24.90;49.73
66090;BME280;53113;45.602;11.904;2022-07-23T01:00:31;101175.59;;;24.89;49.70
66090;BME280;53113;45.602;11.904;2022-07-23T01:02:57;101174.43;;;24.86;49.91
66090;BME280;53113;45.602;11.904;2022-07-23T01:05:23;101178.88;;;24.83;49.92
66090;BME280;53113;45.602;11.904;2022-07-23T01:07:50;101177.90;;;24.79;50.09
66090;BME280;53113;45.602;11.904;2022-07-23T01:10:16;101179.30;;;24.76;49.92
66090;BME280;53113;45.602;11.904;2022-07-23T01:13:06;101181.40;;;24.71;50.13
66090;BME280;53113;45.602;11.904;2022-07-23T01:15:34;101186.16;;;24.68;50.07
66090;BME280;53113;45.602;11.904;2022-07-23T01:18:01;101187.66;;;24.65;50.13
66090;BME280;53113;45.602;11.904;2022-07-23T01:20:27;101185.91;;;24.60;50.38
66090;BME280;53113;45.602;11.904;2022-07-23T01:22:53;101188.81;;;24.56;50.52
66090;BME280;53113;45.602;11.904;2022-07-23T01:25:20;101188.70;;;24.53;50.54
66090;BME280;53113;45.602;11.904;2022-07-23T01:27:45;101190.28;;;24.51;50.64
66090;BME280;53113;45.602;11.904;2022-07-23T01:30:12;101191.15;;;24.47;50.78
66090;BME280;53113;45.602;11.904;2022-07-23T01:32:38;101187.33;;;24.46;50.80
66090;BME280;53113;45.602;11.904;2022-07-23T01:35:05;101179.61;;;24.42;50.85
66090;BME280;53113;45.602;11.904;2022-07-23T01:37:31;101170.93;;;24.39;51.03
66090;BME280;53113;45.602;11.904;2022-07-23T01:39:56;101170.48;;;24.38;51.08
66090;BME280;53113;45.602;11.904;2022-07-23T01:42:23;101166.27;;;24.36;51.23
66090;BME280;53113;45.602;11.904;2022-07-23T01:44:49;101163.41;;;24.33;51.17
66090;BME280;53113;45.602;11.904;2022-07-23T01:47:15;101164.01;;;24.30;51.22
66090;BME280;53113;45.602;11.904;2022-07-23T01:49:40;101167.24;;;24.27;51.29
66090;BME280;53113;45.602;11.904;2022-07-23T01:52:06;101166.58;;;24.22;51.24
66090;BME280;53113;45.602;11.904;2022-07-23T01:54:36;101170.27;;;24.21;51.54
66090;BME280;53113;45.602;11.904;2022-07-23T01:57:04;101170.56;;;24.15;51.54
66090;BME280;53113;45.602;11.904;2022-07-23T01:59:30;101174.84;;;24.12;51.87
66090;BME280;53113;45.602;11.904;2022-07-23T02:01:57;101171.63;;;24.08;51.93
66090;BME280;53113;45.602;11.904;2022-07-23T02:04:24;101174.39;;;24.05;52.06
66090;BME280;53113;45.602;11.904;2022-07-23T02:06:50;101181.44;;;24.01;52.29
66090;BME280;53113;45.602;11.904;2022-07-23T02:09:16;101188.59;;;23.97;52.21
66090;BME280;53113;45.602;11.904;2022-07-23T02:11:43;101189.60;;;23.93;52.30
66090;BME280;53113;45.602;11.904;2022-07-23T02:14:09;101197.57;;;23.90;52.37
66090;BME280;53113;45.602;11.904;2022-07-23T02:16:34;101198.95;;;23.86;52.37
66090;BME280;53113;45.602;11.904;2022-07-23T02:19:00;101202.41;;;23.83;52.47
66090;BME280;53113;45.602;11.904;2022-07-23T02:21:26;101210.90;;;23.81;52.62
66090;BME280;53113;45.602;11.904;2022-07-23T02:23:52;101214.04;;;23.78;52.67
66090;BME280;53113;45.602;11.904;2022-07-23T02:26:18;101214.23;;;23.74;52.73
66090;BME280;53113;45.602;11.904;2022-07-23T02:28:44;101221.09;;;23.72;52.52
66090;BME280;53113;45.602;11.904;2022-07-23T02:31:09;101223.39;;;23.70;52.51
66090;BME280;53113;45.602;11.904;2022-07-23T02:33:35;101226.96;;;23.69;52.53
66090;BME280;53113;45.602;11.904;2022-07-23T02:36:01;101229.10;;;23.66;52.47
66090;BME280;53113;45.602;11.904;2022-07-23T02:38:27;101235.13;;;23.64;52.64
66090;BME280;53113;45.602;11.904;2022-07-23T02:40:52;101238.08;;;23.61;52.76
66090;BME280;53113;45.602;11.904;2022-07-23T02:43:18;101249.36;;;23.59;52.92
66090;BME280;53113;45.602;11.904;2022-07-23T02:45:44;101244.91;;;23.57;53.03
66090;BME280;53113;45.602;11.904;2022-07-23T02:48:09;101245.51;;;23.53;53.06
66090;BME280;53113;45.602;11.904;2022-07-23T02:50:38;101246.56;;;23.52;52.88
66090;BME280;53113;45.602;11.904;2022-07-23T02:53:04;101245.49;;;23.50;52.95
66090;BME280;53113;45.602;11.904;2022-07-23T02:55:30;101244.00;;;23.48;52.88
66090;BME280;53113;45.602;11.904;2022-07-23T02:57:57;101238.52;;;23.46;53.00
66090;BME280;53113;45.602;11.904;2022-07-23T03:00:23;101233.20;;;23.43;52.84
66090;BME280;53113;45.602;11.904;2022-07-23T03:02:48;101234.23;;;23.42;52.81
66090;BME280;53113;45.602;11.904;2022-07-23T03:05:14;101228.09;;;23.39;52.74
66090;BME280;53113;45.602;11.904;2022-07-23T03:07:40;101232.20;;;23.38;52.88
66090;BME280;53113;45.602;11.904;2022-07-23T03:10:06;101231.71;;;23.36;53.03
66090;BME280;53113;45.602;11.904;2022-07-23T03:12:32;101233.79;;;23.34;53.15
66090;BME280;53113;45.602;11.904;2022-07-23T03:14:58;101236.35;;;23.32;53.20
66090;BME280;53113;45.602;11.904;2022-07-23T03:17:23;101238.66;;;23.31;53.23
66090;BME280;53113;45.602;11.904;2022-07-23T03:19:49;101235.02;;;23.29;53.43
66090;BME280;53113;45.602;11.904;2022-07-23T03:22:15;101230.42;;;23.29;53.39
66090;BME280;53113;45.602;11.904;2022-07-23T03:24:41;101232.98;;;23.27;53.33
66090;BME280;53113;45.602;11.904;2022-07-23T03:27:20;101234.52;;;23.26;53.42
66090;BME280;53113;45.602;11.904;2022-07-23T03:29:46;101235.81;;;23.25;53.41
66090;BME280;53113;45.602;11.904;2022-07-23T03:32:11;101231.88;;;23.23;53.45
66090;BME280;53113;45.602;11.904;2022-07-23T03:34:37;101228.78;;;23.22;53.59
66090;BME280;53113;45.602;11.904;2022-07-23T03:37:03;101229.64;;;23.21;53.37
66090;BME280;53113;45.602;11.904;2022-07-23T03:39:29;101229.02;;;23.18;53.42
66090;BME280;53113;45.602;11.904;2022-07-23T03:41:55;101232.83;;;23.17;53.47
66090;BME280;53113;45.602;11.904;2022-07-23T03:44:21;101227.11;;;23.13;53.38
66090;BME280;53113;45.602;11.904;2022-07-23T03:46:47;101232.62;;;23.11;53.43
66090;BME280;53113;45.602;11.904;2022-07-23T03:49:12;101236.18;;;23.09;53.56
66090;BME280;53113;45.602;11.904;2022-07-23T03:51:38;101237.53;;;23.08;53.65
66090;BME280;53113;45.602;11.904;2022-07-23T03:54:04;101239.34;;;23.05;53.72
66090;BME280;53113;45.602;11.904;2022-07-23T03:56:30;101243.09;;;23.02;53.73
66090;BME280;53113;45.602;11.904;2022-07-23T03:58:56;101242.61;;;23.02;53.84
66090;BME280;53113;45.602;11.904;2022-07-23T04:01:22;101241.80;;;23.00;53.94
66090;BME280;53113;45.602;11.904;2022-07-23T04:03:47;101243.83;;;22.97;53.92
66090;BME280;53113;45.602;11.904;2022-07-23T04:06:14;101241.06;;;22.95;54.02
66090;BME280;53113;45.602;11.904;2022-07-23T04:08:39;101248.85;;;22.95;54.16
66090;BME280;53113;45.602;11.904;2022-07-23T04:11:05;101250.95;;;22.94;54.22
66090;BME280;53113;45.602;11.904;2022-07-23T04:13:31;101252.35;;;22.92;54.26
66090;BME280;53113;45.602;11.904;2022-07-23T04:15:58;101255.59;;;22.93;54.67
66090;BME280;53113;45.602;11.904;2022-07-23T04:18:24;101260.29;;;22.94;54.76
66090;BME280;53113;45.602;11.904;2022-07-23T04:20:53;101259.50;;;22.98;54.92
66090;BME280;53113;45.602;11.904;2022-07-23T04:23:18;101256.20;;;23.02;54.99
66090;BME280;53113;45.602;11.904;2022-07-23T04:25:44;101253.23;;;23.06;55.18
66090;BME280;53113;45.602;11.904;2022-07-23T04:28:16;101255.92;;;23.08;55.29
66090;BME280;53113;45.602;11.904;2022-07-23T04:30:42;101259.94;;;23.12;55.32
66090;BME280;53113;45.602;11.904;2022-07-23T04:33:08;101263.98;;;23.15;55.35
66090;BME280;53113;45.602;11.904;2022-07-23T04:35:34;101269.64;;;23.17;55.48
66090;BME280;53113;45.602;11.904;2022-07-23T04:38:00;101274.85;;;23.20;55.57
66090;BME280;53113;45.602;11.904;2022-07-23T04:40:27;101277.13;;;23.22;55.59
66090;BME280;53113;45.602;11.904;2022-07-23T04:42:53;101276.15;;;23.24;55.51
66090;BME280;53113;45.602;11.904;2022-07-23T04:45:19;101274.75;;;23.27;55.49
66090;BME280;53113;45.602;11.904;2022-07-23T04:47:45;101269.20;;;23.29;55.63
66090;BME280;53113;45.602;11.904;2022-07-23T04:50:11;101274.73;;;23.33;55.88
66090;BME280;53113;45.602;11.904;2022-07-23T04:52:37;101274.16;;;23.36;56.07
66090;BME280;53113;45.602;11.904;2022-07-23T04:55:03;101271.67;;;23.41;56.28
66090;BME280;53113;45.602;11.904;2022-07-23T04:57:29;101270.36;;;23.48;56.51
66090;BME280;53113;45.602;11.904;2022-07-23T04:59:55;101270.36;;;23.54;56.72
66090;BME280;53113;45.602;11.904;2022-07-23T05:02:21;101267.77;;;23.62;56.47
66090;BME280;53113;45.602;11.904;2022-07-23T05:04:46;101267.31;;;23.67;56.60
66090;BME280;53113;45.602;11.904;2022-07-23T05:07:12;101257.81;;;23.74;56.62
66090;BME280;53113;45.602;11.904;2022-07-23T05:09:38;101257.05;;;23.79;56.33
66090;BME280;53113;45.602;11.904;2022-07-23T05:12:04;101258.86;;;23.87;56.38
66090;BME280;53113;45.602;11.904;2022-07-23T05:14:30;101259.85;;;23.92;56.27
66090;BME280;53113;45.602;11.904;2022-07-23T05:16:55;101253.31;;;23.97;56.18
66090;BME280;53113;45.602;11.904;2022-07-23T05:19:21;101249.71;;;24.04;56.21
66090;BME280;53113;45.602;11.904;2022-07-23T05:21:47;101245.82;;;24.10;56.02
66090;BME280;53113;45.602;11.904;2022-07-23T05:24:13;101245.98;;;24.20;55.93
66090;BME280;53113;45.602;11.904;2022-07-23T05:26:38;101241.16;;;24.26;55.97
66090;BME280;53113;45.602;11.904;2022-07-23T05:29:04;101243.15;;;24.32;55.94
66090;BME280;53113;45.602;11.904;2022-07-23T05:31:30;101241.94;;;24.40;55.88
66090;BME280;53113;45.602;11.904;2022-07-23T05:33:55;101244.84;;;24.46;55.94
66090;BME280;53113;45.602;11.904;2022-07-23T05:36:21;101244.28;;;24.53;56.15
66090;BME280;53113;45.602;11.904;2022-07-23T05:38:47;101247.81;;;24.61;56.48
66090;BME280;53113;45.602;11.904;2022-07-23T05:41:13;101245.91;;;24.68;56.81
66090;BME280;53113;45.602;11.904;2022-07-23T05:43:38;101249.18;;;24.76;57.06
66090;BME280;53113;45.602;11.904;2022-07-23T05:46:04;101251.98;;;24.85;57.09
66090;BME280;53113;45.602;11.904;2022-07-23T05:48:30;101247.27;;;24.95;57.16
66090;BME280;53113;45.602;11.904;2022-07-23T05:50:56;101245.27;;;25.05;57.18
66090;BME280;53113;45.602;11.904;2022-07-23T05:53:21;101243.86;;;25.14;56.94
66090;BME280;53113;45.602;11.904;2022-07-23T05:55:47;101242.15;;;25.23;57.02
66090;BME280;53113;45.602;11.904;2022-07-23T05:58:13;101245.33;;;25.32;57.12
66090;BME280;53113;45.602;11.904;2022-07-23T06:00:38;101250.81;;;25.43;56.93
66090;BME280;53113;45.602;11.904;2022-07-23T06:03:04;101253.07;;;25.52;56.89
66090;BME280;53113;45.602;11.904;2022-07-23T06:05:30;101256.85;;;25.62;56.64
66090;BME280;53113;45.602;11.904;2022-07-23T06:07:56;101259.58;;;25.71;56.38
66090;BME280;53113;45.602;11.904;2022-07-23T06:10:21;101261.44;;;25.81;56.17
66090;BME280;53113;45.602;11.904;2022-07-23T06:12:48;101258.73;;;25.92;56.16
66090;BME280;53113;45.602;11.904;2022-07-23T06:15:13;101260.86;;;26.02;55.93
66090;BME280;53113;45.602;11.904;2022-07-23T06:17:39;101267.13;;;26.10;55.75
66090;BME280;53113;45.602;11.904;2022-07-23T06:20:09;101271.85;;;26.24;55.60
66090;BME280;53113;45.602;11.904;2022-07-23T06:22:35;101274.13;;;26.37;55.30
66090;BME280;53113;45.602;11.904;2022-07-23T06:25:01;101275.77;;;26.48;55.17
66090;BME280;53113;45.602;11.904;2022-07-23T06:27:27;101276.82;;;26.60;54.87
66090;BME280;53113;45.602;11.904;2022-07-23T06:29:53;101272.25;;;26.75;54.74
66090;BME280;53113;45.602;11.904;2022-07-23T06:32:19;101277.14;;;26.88;54.33
66090;BME280;53113;45.602;11.904;2022-07-23T06:34:45;101279.44;;;27.03;54.02
66090;BME280;53113;45.602;11.904;2022-07-23T06:37:11;101280.51;;;27.18;53.72
66090;BME280;53113;45.602;11.904;2022-07-23T06:39:37;101285.16;;;27.33;53.48
66090;BME280;53113;45.602;11.904;2022-07-23T06:42:03;101287.32;;;27.50;53.08
66090;BME280;53113;45.602;11.904;2022-07-23T06:44:28;101289.20;;;27.66;52.87
66090;BME280;53113;45.602;11.904;2022-07-23T06:46:54;101289.36;;;27.82;52.62
66090;BME280;53113;45.602;11.904;2022-07-23T06:49:20;101290.46;;;28.00;52.24
66090;BME280;53113;45.602;11.904;2022-07-23T06:51:46;101292.71;;;28.18;52.06
66090;BME280;53113;45.602;11.904;2022-07-23T06:54:12;101302.25;;;28.36;51.91
66090;BME280;53113;45.602;11.904;2022-07-23T06:56:37;101304.51;;;28.55;51.51
66090;BME280;53113;45.602;11.904;2022-07-23T06:59:03;101307.61;;;28.72;51.12
66090;BME280;53113;45.602;11.904;2022-07-23T07:01:29;101308.61;;;28.90;50.91
66090;BME280;53113;45.602;11.904;2022-07-23T07:03:55;101302.69;;;29.09;50.41
66090;BME280;53113;45.602;11.904;2022-07-23T07:06:21;101298.44;;;29.27;49.96
66090;BME280;53113;45.602;11.904;2022-07-23T07:08:46;101294.84;;;29.44;49.23
66090;BME280;53113;45.602;11.904;2022-07-23T07:11:12;101290.91;;;29.60;48.70
66090;BME280;53113;45.602;11.904;2022-07-23T07:13:38;101286.13;;;29.80;48.27
66090;BME280;53113;45.602;11.904;2022-07-23T07:16:04;101280.46;;;29.98;48.18
66090;BME280;53113;45.602;11.904;2022-07-23T07:18:30;101278.67;;;30.18;47.53
66090;BME280;53113;45.602;11.904;2022-07-23T07:20:58;101279.02;;;30.38;47.01
66090;BME280;53113;45.602;11.904;2022-07-23T07:23:24;101279.07;;;30.58;46.71
66090;BME280;53113;45.602;11.904;2022-07-23T07:25:50;101276.85;;;30.79;46.21
66090;BME280;53113;45.602;11.904;2022-07-23T07:28:15;101272.83;;;31.00;45.44
66090;BME280;53113;45.602;11.904;2022-07-23T07:30:41;101269.37;;;31.18;44.81
66090;BME280;53113;45.602;11.904;2022-07-23T07:33:07;101267.75;;;31.39;44.36
66090;BME280;53113;45.602;11.904;2022-07-23T07:35:33;101264.68;;;31.56;44.18
66090;BME280;53113;45.602;11.904;2022-07-23T07:37:59;101261.94;;;31.75;43.51
66090;BME280;53113;45.602;11.904;2022-07-23T07:40:26;101261.58;;;31.93;42.96
66090;BME280;53113;45.602;11.904;2022-07-23T07:42:53;101260.36;;;32.09;42.63
66090;BME280;53113;45.602;11.904;2022-07-23T07:45:23;101260.54;;;32.29;42.53
66090;BME280;53113;45.602;11.904;2022-07-23T07:47:50;101261.10;;;32.48;42.26
66090;BME280;53113;45.602;11.904;2022-07-23T07:50:17;101261.00;;;32.68;41.82
66090;BME280;53113;45.602;11.904;2022-07-23T07:52:43;101262.69;;;32.86;40.96
66090;BME280;53113;45.602;11.904;2022-07-23T07:55:10;101260.88;;;33.00;40.70
66090;BME280;53113;45.602;11.904;2022-07-23T07:57:36;101264.09;;;33.21;40.21
66090;BME280;53113;45.602;11.904;2022-07-23T08:00:03;101265.70;;;33.37;39.72
66090;BME280;53113;45.602;11.904;2022-07-23T08:02:49;101261.80;;;33.55;39.38
66090;BME280;53113;45.602;11.904;2022-07-23T08:05:19;101261.75;;;33.72;38.79
66090;BME280;53113;45.602;11.904;2022-07-23T08:07:45;101260.77;;;33.88;38.36
66090;BME280;53113;45.602;11.904;2022-07-23T08:10:10;101262.85;;;34.03;38.21
66090;BME280;53113;45.602;11.904;2022-07-23T08:12:46;101260.87;;;34.17;37.94
66090;BME280;53113;45.602;11.904;2022-07-23T08:15:14;101270.99;;;34.40;37.55
66090;BME280;53113;45.602;11.904;2022-07-23T08:17:40;101274.14;;;34.59;37.04
66090;BME280;53113;45.602;11.904;2022-07-23T08:20:06;101269.27;;;34.80;36.46
66090;BME280;53113;45.602;11.904;2022-07-23T08:25:26;101273.46;;;35.16;35.69
66090;BME280;53113;45.602;11.904;2022-07-23T08:27:52;101272.72;;;35.36;34.84
66090;BME280;53113;45.602;11.904;2022-07-23T08:30:19;101272.56;;;35.51;34.29
66090;BME280;53113;45.602;11.904;2022-07-23T08:32:58;101275.09;;;35.71;34.06
66090;BME280;53113;45.602;11.904;2022-07-23T08:35:35;101277.58;;;35.91;33.59
66090;BME280;53113;45.602;11.904;2022-07-23T08:38:04;101277.14;;;36.10;33.28
66090;BME280;53113;45.602;11.904;2022-07-23T08:40:33;101278.83;;;36.28;32.86
66090;BME280;53113;45.602;11.904;2022-07-23T08:43:00;101280.81;;;36.44;32.27
66090;BME280;53113;45.602;11.904;2022-07-23T08:45:29;101278.01;;;36.64;31.81
66090;BME280;53113;45.602;11.904;2022-07-23T08:47:57;101273.56;;;36.79;31.25
66090;BME280;53113;45.602;11.904;2022-07-23T08:50:25;101275.70;;;36.98;30.46
66090;BME280;53113;45.602;11.904;2022-07-23T08:52:52;101275.14;;;37.13;30.46
66090;BME280;53113;45.602;11.904;2022-07-23T08:55:20;101271.59;;;37.30;30.11
66090;BME280;53113;45.602;11.904;2022-07-23T08:57:47;101267.89;;;37.41;30.10
66090;BME280;53113;45.602;11.904;2022-07-23T09:00:14;101266.58;;;37.52;30.01
66090;BME280;53113;45.602;11.904;2022-07-23T09:02:41;101268.83;;;37.58;29.89
66090;BME280;53113;45.602;11.904;2022-07-23T09:05:09;101269.36;;;37.64;29.91
66090;BME280;53113;45.602;11.904;2022-07-23T09:07:37;101267.65;;;37.72;29.79
66090;BME280;53113;45.602;11.904;2022-07-23T09:10:10;101269.14;;;37.82;29.56
66090;BME280;53113;45.602;11.904;2022-07-23T09:12:37;101272.11;;;37.95;29.32
66090;BME280;53113;45.602;11.904;2022-07-23T09:15:05;101270.12;;;38.08;28.98
66090;BME280;53113;45.602;11.904;2022-07-23T09:17:42;101268.92;;;38.24;29.06
66090;BME280;53113;45.602;11.904;2022-07-23T09:20:16;101266.98;;;38.41;28.28
66090;BME280;53113;45.602;11.904;2022-07-23T09:22:46;101262.41;;;38.57;27.59
66090;BME280;53113;45.602;11.904;2022-07-23T09:25:17;101265.27;;;38.72;27.42
66090;BME280;53113;45.602;11.904;2022-07-23T09:30:13;101262.48;;;38.97;26.45
66090;BME280;53113;45.602;11.904;2022-07-23T09:32:40;101264.00;;;39.10;26.17
66090;BME280;53113;45.602;11.904;2022-07-23T09:35:06;101264.45;;;39.23;26.16
66090;BME280;53113;45.602;11.904;2022-07-23T09:37:31;101268.08;;;39.37;26.06
66090;BME280;53113;45.602;11.904;2022-07-23T09:40:08;101264.52;;;39.50;26.13
66090;BME280;53113;45.602;11.904;2022-07-23T09:42:40;101259.38;;;39.70;25.73
66090;BME280;53113;45.602;11.904;2022-07-23T09:45:10;101253.83;;;39.85;25.15
66090;BME280;53113;45.602;11.904;2022-07-23T09:47:36;101257.01;;;40.03;24.45
66090;BME280;53113;45.602;11.904;2022-07-23T09:50:07;101257.07;;;40.16;23.87
66090;BME280;53113;45.602;11.904;2022-07-23T09:52:46;101251.05;;;40.29;23.19
66090;BME280;53113;45.602;11.904;2022-07-23T09:55:14;101249.71;;;40.39;22.84
66090;BME280;53113;45.602;11.904;2022-07-23T09:57:41;101247.45;;;40.50;22.75
66090;BME280;53113;45.602;11.904;2022-07-23T10:00:11;101244.72;;;40.63;22.72
66090;BME280;53113;45.602;11.904;2022-07-23T10:02:39;101243.11;;;40.73;22.73
66090;BME280;53113;45.602;11.904;2022-07-23T10:05:06;101240.50;;;40.84;22.82
66090;BME280;53113;45.602;11.904;2022-07-23T10:07:34;101242.93;;;40.99;22.66
66090;BME280;53113;45.602;11.904;2022-07-23T10:10:03;101238.34;;;41.16;22.84
66090;BME280;53113;45.602;11.904;2022-07-23T10:12:29;101236.83;;;41.32;22.47
66090;BME280;53113;45.602;11.904;2022-07-23T10:14:57;101238.13;;;41.49;22.47
66090;BME280;53113;45.602;11.904;2022-07-23T10:17:23;101235.20;;;41.66;22.02
66090;BME280;53113;45.602;11.904;2022-07-23T10:19:49;101229.66;;;41.81;21.44
66090;BME280;53113;45.602;11.904;2022-07-23T10:22:21;101228.52;;;41.99;21.30
66090;BME280;53113;45.602;11.904;2022-07-23T10:31:02;101221.88;;;42.50;21.02
66090;BME280;53113;45.602;11.904;2022-07-23T10:33:59;101221.09;;;42.67;20.81
66090;BME280;53113;45.602;11.904;2022-07-23T10:36:47;101218.20;;;42.78;20.66
66090;BME280;53113;45.602;11.904;2022-07-23T10:39:27;101215.18;;;42.91;20.06
66090;BME280;53113;45.602;11.904;2022-07-23T10:42:09;101213.23;;;43.04;19.79
66090;BME280;53113;45.602;11.904;2022-07-23T10:44:53;101205.86;;;43.20;19.88
66090;BME280;53113;45.602;11.904;2022-07-23T10:47:28;101205.11;;;43.34;19.34
66090;BME280;53113;45.602;11.904;2022-07-23T10:50:27;101204.57;;;43.48;19.02
66090;BME280;53113;45.602;11.904;2022-07-23T10:53:14;101199.98;;;43.59;18.68
66090;BME280;53113;45.602;11.904;2022-07-23T10:55:43;101199.00;;;43.70;17.99
66090;BME280;53113;45.602;11.904;2022-07-23T10:58:11;101195.24;;;43.85;18.32
66090;BME280;53113;45.602;11.904;2022-07-23T11:00:37;101196.61;;;44.02;18.27
66090;BME280;53113;45.602;11.904;2022-07-23T11:03:06;101194.98;;;44.21;17.95
66090;BME280;53113;45.602;11.904;2022-07-23T11:05:50;101189.95;;;44.39;17.51
66090;BME280;53113;45.602;11.904;2022-07-23T11:08:19;101188.99;;;44.55;17.01
66090;BME280;53113;45.602;11.904;2022-07-23T11:13:36;101183.12;;;44.88;16.38
66090;BME280;53113;45.602;11.904;2022-07-23T11:16:07;101181.70;;;44.99;16.13
66090;BME280;53113;45.602;11.904;2022-07-23T11:23:58;101167.45;;;45.33;16.58
66090;BME280;53113;45.602;11.904;2022-07-23T11:26:43;101172.05;;;45.51;16.48
66090;BME280;53113;45.602;11.904;2022-07-23T11:37:02;101157.97;;;46.17;15.23
66090;BME280;53113;45.602;11.904;2022-07-23T11:39:30;101155.80;;;46.31;15.08
66090;BME280;53113;45.602;11.904;2022-07-23T11:41:58;101148.73;;;46.42;15.07
66090;BME280;53113;45.602;11.904;2022-07-23T11:46:56;101144.15;;;46.66;14.58
66090;BME280;53113;45.602;11.904;2022-07-23T11:49:24;101136.23;;;46.77;14.61
66090;BME280;53113;45.602;11.904;2022-07-23T11:54:30;101131.65;;;47.00;14.29
66090;BME280;53113;45.602;11.904;2022-07-23T11:56:58;101138.46;;;47.08;14.52
66090;BME280;53113;45.602;11.904;2022-07-23T11:59:27;101138.11;;;47.11;14.61
66090;BME280;53113;45.602;11.904;2022-07-23T12:01:58;101135.99;;;47.15;14.48
66090;BME280;53113;45.602;11.904;2022-07-23T12:04:36;101138.18;;;47.21;14.19
66090;BME280;53113;45.602;11.904;2022-07-23T12:07:02;101135.27;;;47.30;14.48
66090;BME280;53113;45.602;11.904;2022-07-23T12:09:28;101131.02;;;47.38;14.26
66090;BME280;53113;45.602;11.904;2022-07-23T12:11:58;101126.40;;;47.44;14.03
66090;BME280;53113;45.602;11.904;2022-07-23T12:14:24;101127.19;;;47.52;14.25
66090;BME280;53113;45.602;11.904;2022-07-23T12:17:09;101122.73;;;47.56;14.14
66090;BME280;53113;45.602;11.904;2022-07-23T12:19:36;101119.02;;;47.61;14.14
66090;BME280;53113;45.602;11.904;2022-07-23T12:22:02;101112.08;;;47.63;14.46
66090;BME280;53113;45.602;11.904;2022-07-23T12:24:28;101109.84;;;47.63;14.27
66090;BME280;53113;45.602;11.904;2022-07-23T12:27:10;101112.21;;;47.62;13.81
66090;BME280;53113;45.602;11.904;2022-07-23T12:29:42;101112.92;;;47.61;13.32
66090;BME280;53113;45.602;11.904;2022-07-23T12:32:25;101105.92;;;47.61;13.16
66090;BME280;53113;45.602;11.904;2022-07-23T12:35:06;101103.29;;;47.65;12.92
66090;BME280;53113;45.602;11.904;2022-07-23T12:40:26;101103.06;;;47.85;13.09
66090;BME280;53113;45.602;11.904;2022-07-23T12:42:57;101098.70;;;47.97;12.87
66090;BME280;53113;45.602;11.904;2022-07-23T12:45:25;101096.80;;;48.07;12.92
66090;BME280;53113;45.602;11.904;2022-07-23T12:48:05;101097.52;;;48.14;13.19
66090;BME280;53113;45.602;11.904;2022-07-23T12:56:14;101080.73;;;48.23;12.95
66090;BME280;53113;45.602;11.904;2022-07-23T13:06:33;101074.84;;;48.40;13.10
66090;BME280;53113;45.602;11.904;2022-07-23T13:09:01;101073.48;;;48.37;13.24
66090;BME280;53113;45.602;11.904;2022-07-23T13:11:28;101072.67;;;48.36;13.48
66090;BME280;53113;45.602;11.904;2022-07-23T13:13:54;101073.02;;;48.38;12.92
66090;BME280;53113;45.602;11.904;2022-07-23T13:16:20;101067.39;;;48.41;12.47
66090;BME280;53113;45.602;11.904;2022-07-23T13:18:46;101068.52;;;48.48;12.42
66090;BME280;53113;45.602;11.904;2022-07-23T13:21:12;101063.17;;;48.56;12.03
66090;BME280;53113;45.602;11.904;2022-07-23T13:23:37;101066.89;;;48.63;12.11
66090;BME280;53113;45.602;11.904;2022-07-23T13:26:04;101057.63;;;48.67;12.28
66090;BME280;53113;45.602;11.904;2022-07-23T13:28:29;101063.69;;;48.72;12.61
66090;BME280;53113;45.602;11.904;2022-07-23T13:30:56;101056.92;;;48.78;12.59
66090;BME280;53113;45.602;11.904;2022-07-23T13:33:24;101054.64;;;48.89;12.34